Airfield :
LOGIN :

Register | Disclaimer

   EN    FR    IT 

 










Legend :    VFR   Marginal VFR   IFR   Intensive IFR   Very Intensive IFR
Visi :
Ceiling :
>= 8 km
>= 3000ft
5 to 8 km
1000 to 3000 ft
1500m to 5 km
500 to 1000 ft
800 to 1500m
200 to 500 ft
< 800m
< 200 ft
Symbols :   Thunderstorms  Fog  Heavy snow  Heavy precipitations  Wind > 20 kt
SIGMETs :     Misc.  Thunderstorms  Icing  Turbulence  Mountain Waves  Volcanic Ashes






- Airport Elevation : 274 ft
- IATA code : PUY


LDPL - Pula

CURRENT METAR :
  • 200330Z 02006KT CAVOK 06/M04 Q1023 NOSIG

EXPIRED METARs :
  • 200300Z 01007KT CAVOK 05/M03 Q1023 NOSIG
  • 200230Z 05006KT CAVOK 05/M03 Q1022
  • 200200Z 03007KT CAVOK 07/M02 Q1022
  • 200130Z 03006KT CAVOK 07/M02 Q1022

TAF TAF LDPL
Valid from the 20 at 00:00 until the 21 at 00:00 UTC


192325Z 2000/2100 06010KT CAVOK TX13/2013Z TN04/2006Z
BECMG 2006/2008 VRB02KT
PROB40
TEMPO 2013/2016 27008KT



MET'MAP, your aeronautical weather chart ! - Copyright ORBIFLY December 2007 - Disclaimer

ORBIFLY MET'MAP TEAM :

Programming & Development : Alexandra Zaïnal
Concept & original design : Baudouin d'Aumeries
Assistance for programming : Marc-Olivier Méhu
Technical & hardware support : Manuel Goepfert

Contact : metmap@orbifly.com




SOURCES & CREDITS :

   NOAA